Londyn, Wielka Brytania

01:42 GMT dnia 02-luty-2015 (GMT +0000)
Heathrow | Change Station
CLOSE
Current Station
Lotnisko
Location: London,
n.p.m.: 79 ft
Najbliższa stacja pogodowa

Wysokość 79 ft 51.48 °N, 0.46 °W | Updated 22 minutes ago

Clear
pogodnie
27 ° F
Odczuwalna 19 ° F
Płn.
7
Wiatr zmienny Wiatr od zachodni

Dziś
Wysoka -- | Niska -- ° F
--% Prawdop. opadów
Wczoraj
Wysoka -- | Niska -- ° F
Precip. -- cali
7:39 AM 4:52 PM
Powiększający się Księżyc, 97% visible
Ciśnienie 29.71 cali
Widzialność 6.2 mil
chmury
czynnik chłodzący wiatru 19 ° F
Punkt rosy 23 ° F
Wilgotność 86%
Opady deszczu 0.00 cali
grubość pokrywy śnieżnej Niedostępne.
UV Niedostępne.
Pyłki Niedostępne.
Jakość powietrza Niedostępne.
Flu Activity Niedostępne.
METAR EGLL 020120Z AUTO 28006KT 9999 NCD M03/M05 Q1006

More Conditions Fewer Conditions

Ciśnienie 29.71 cali
Widzialność 6.2 mil
chmury
czynnik chłodzący wiatru 19 ° F
Punkt rosy 23 ° F
Wilgotność 86%
Opady deszczu 0.00 cali
grubość pokrywy śnieżnej Niedostępne.
UV Niedostępne.
Pyłki Niedostępne.
Jakość powietrza Niedostępne.
Flu Activity Niedostępne.
METAR EGLL 020120Z AUTO 28006KT 9999 NCD M03/M05 Q1006

More Conditions Fewer Conditions

10-Day Weather Forecast

Almanac

Astronomia

Feb. 02, 2015 Wschód Zachów
Aktualny czas
Zmierzch cywilny
Zmierzch żeglarski
świt/zmierzch astronomiczny
Księżyc
całkowite oświetlenie
Długość dnia
Tomorrow will be .
, % of the Moon is Illuminated

Dzisiejsze ekstrema

Country Highs Country Lows

Community

WunderPhotos

Upload Photos

1,792,652 zdjęcia zostały przesłane!

WunderBlogs® & News

Nearby

Jakość powietrza

  Jakość powietrza czynnik AQ Zanieczyszczenie
Not available.

Głębokość pokrywy śnieżnej

Station Depth n.p.m.

Aktywność sejsmiczna

Miejscowość Distance Mag. Time & Date
Minimum magnitude displayed is 2.5.

Temperatury wody na wybrzeżu

Miejsce Temperatura

Najbliższa stacja pogodowa